map of KGEU home
Great Circle Mapper logo
KGEU - Airport
Location
City:  Glendale, Arizona, United States
Name:Glendale Municipal Airport
ICAO:KGEU
FAA:GEU

Details
Type:Airport (Airfield)
Use:Public/Civil
Latitude:3331'37"N (33.526917)
Longitude:11217'42"W (-112.295138)
Datum:WGS 1984
Elevation:1071 ft (326 m)
Runways:1
Longest:7150 × 100 ft (2179 × 30.5 m), paved

Time
Time Zone:UTC-7
Local Time:

Weather
METAR:KGEU 301947Z 19007KT 20SM FEW150 SCT250 42/11 A2987

Related Locations
Nearby:
Farthest:RRG: 11446 mi / 18421 km
Plaine Corail, Rodrigues Island, MU

Find:

   beyond  
but within

Other Information
Maps:
NOTAMs:
Links:
Sources:

  
flag of United States
flag of Arizona
  

Airport Diagram

Airport diagram for KGEU

Airport diagram PDF

Sectional Chart

Flight Planning
at skyvector.com

Satellite Image

Google Maps Satellite View

 

Copyright © 2004-2014 Karl L. Swartz. All rights reserved.
The Great Circle Mapper name and logo are trademarks of the Great Circle Mapper.
All other trademarks mentioned herein belong to their respective owners.
Please see credits for attibutions and further copyright information.

  Follow gcmap on Facebook Follow gcmap on Twitter

hCard Microformat

Geo Microformat